createdAt,value
2022-11-24T00:01:07.226Z,8.23
2022-11-24T00:03:34.486Z,8.40
2022-11-24T00:06:15.160Z,8.40
2022-11-24T00:08:44.453Z,9.02
2022-11-24T00:11:14.235Z,8.05
2022-11-24T00:13:41.695Z,8.32
2022-11-24T00:16:15.900Z,8.68
2022-11-24T00:18:45.735Z,9.23
2022-11-24T00:21:13.715Z,8.85
2022-11-24T00:23:41.084Z,9.60
2022-11-24T00:26:17.330Z,8.57
2022-11-24T00:28:45.192Z,9.07
2022-11-24T00:31:39.116Z,9.20
2022-11-24T00:34:10.189Z,9.73
2022-11-24T00:36:37.257Z,9.88
2022-11-24T00:39:07.167Z,10.50
2022-11-24T00:41:35.010Z,9.55
2022-11-24T00:44:02.006Z,10.20
2022-11-24T00:46:29.312Z,9.02
2022-11-24T00:48:56.816Z,8.05
2022-11-24T00:51:30.239Z,7.95
2022-11-24T00:54:01.291Z,7.45
2022-11-24T00:56:29.806Z,7.65
2022-11-24T00:58:56.730Z,7.38
2022-11-24T01:01:26.379Z,7.28
2022-11-24T01:03:54.681Z,7.60
2022-11-24T01:06:24.805Z,6.78
2022-11-24T01:08:51.822Z,7.20
2022-11-24T01:11:27.661Z,7.22
2022-11-24T01:13:57.825Z,7.82
2022-11-24T01:16:35.435Z,7.32
2022-11-24T01:19:03.931Z,6.72
2022-11-24T01:21:30.706Z,6.75
2022-11-24T01:23:57.967Z,7.47
2022-11-24T01:26:24.832Z,7.15
2022-11-24T01:28:56.169Z,7.22
2022-11-24T01:31:24.051Z,7.05
2022-11-24T01:33:51.028Z,7.30
2022-11-24T01:36:18.321Z,6.82
2022-11-24T01:38:45.128Z,6.60
2022-11-24T01:41:15.563Z,6.85
2022-11-24T01:43:43.438Z,6.32
2022-11-24T01:46:35.270Z,6.30
2022-11-24T01:49:14.591Z,6.30
2022-11-24T01:51:50.553Z,7.13
2022-11-24T01:54:31.027Z,6.55
2022-11-24T01:57:03.701Z,7.55
2022-11-24T01:59:31.033Z,6.50
2022-11-24T02:01:57.988Z,6.05
2022-11-24T02:04:29.854Z,6.00
2022-11-24T02:09:46.986Z,6.40
2022-11-24T02:12:13.774Z,6.57
2022-11-24T02:14:43.010Z,7.00
2022-11-24T02:17:09.878Z,6.57
2022-11-24T02:20:20.569Z,6.57
2022-11-24T02:23:19.113Z,7.05
2022-11-24T02:26:10.204Z,6.85
2022-11-24T02:28:37.690Z,6.90
2022-11-24T02:31:05.833Z,7.20
2022-11-24T02:33:34.551Z,7.97
2022-11-24T02:36:01.378Z,7.30
2022-11-24T02:38:33.447Z,7.43
2022-11-24T02:41:11.291Z,7.28
2022-11-24T02:43:46.905Z,7.97
2022-11-24T02:46:13.745Z,7.88
2022-11-24T02:48:40.635Z,8.20
2022-11-24T02:51:07.559Z,7.13
2022-11-24T02:53:34.419Z,7.95
2022-11-24T02:56:01.247Z,7.72
2022-11-24T02:58:28.131Z,8.00
2022-11-24T03:00:55.220Z,7.95
2022-11-24T03:03:22.245Z,8.35
2022-11-24T03:05:49.203Z,8.15
2022-11-24T03:08:16.281Z,7.90
2022-11-24T03:10:43.475Z,8.18
2022-11-24T03:13:10.627Z,7.72
2022-11-24T03:15:37.618Z,7.93
2022-11-24T03:18:04.480Z,8.20
2022-11-24T03:20:31.309Z,11.32
2022-11-24T03:22:58.128Z,8.20
2022-11-24T03:25:25.022Z,8.05
2022-11-24T03:27:51.800Z,8.43
2022-11-24T03:30:18.631Z,8.00
2022-11-24T03:32:45.532Z,7.82
2022-11-24T03:35:12.326Z,8.50
2022-11-24T03:37:39.178Z,8.20
2022-11-24T03:40:06.731Z,8.30
2022-11-24T03:42:33.512Z,7.93
2022-11-24T03:45:16.753Z,8.23
2022-11-24T03:47:51.330Z,7.32
2022-11-24T03:50:18.216Z,8.13
2022-11-24T03:52:44.963Z,8.65
2022-11-24T03:55:11.763Z,7.95
2022-11-24T03:57:39.375Z,8.00
2022-11-24T04:00:06.974Z,8.02
2022-11-24T04:02:33.846Z,7.95
2022-11-24T04:05:00.696Z,7.90
2022-11-24T04:07:27.486Z,8.07
2022-11-24T04:09:54.355Z,8.73
2022-11-24T04:12:39.560Z,8.07
2022-11-24T04:15:06.944Z,7.30
2022-11-24T04:17:33.743Z,7.40
2022-11-24T04:20:00.500Z,7.20
2022-11-24T04:22:27.395Z,8.50
2022-11-24T04:24:54.131Z,7.88
2022-11-24T04:27:20.899Z,7.55
2022-11-24T04:29:47.707Z,8.63
2022-11-24T04:32:14.527Z,7.82
2022-11-24T04:34:41.315Z,8.10
2022-11-24T04:37:08.134Z,7.90
2022-11-24T04:39:35.126Z,7.45
2022-11-24T04:42:02.068Z,7.78
2022-11-24T04:44:28.927Z,8.88
2022-11-24T04:46:55.824Z,8.00
2022-11-24T04:49:22.742Z,6.55
2022-11-24T04:51:49.750Z,6.97
2022-11-24T04:54:16.752Z,6.55
2022-11-24T04:56:44.096Z,7.53
2022-11-24T04:59:15.117Z,7.40
2022-11-24T05:01:46.409Z,7.78
2022-11-24T05:04:15.115Z,7.70
2022-11-24T05:06:42.044Z,8.05
2022-11-24T05:09:13.585Z,7.65
2022-11-24T05:11:42.135Z,7.43
2022-11-24T05:14:09.023Z,7.63
2022-11-24T05:16:36.027Z,8.32
2022-11-24T05:19:02.819Z,8.18
2022-11-24T05:21:29.532Z,8.32
2022-11-24T05:23:56.313Z,8.38
2022-11-24T05:26:23.277Z,8.05
2022-11-24T05:28:50.023Z,9.13
2022-11-24T05:31:16.856Z,9.50
2022-11-24T05:33:43.683Z,9.27
2022-11-24T05:36:30.491Z,9.85
2022-11-24T05:38:57.411Z,9.45
2022-11-24T05:41:24.148Z,9.18
2022-11-24T05:43:51.062Z,11.00
2022-11-24T05:46:17.976Z,10.85
2022-11-24T05:48:44.788Z,9.90
2022-11-24T05:51:11.590Z,9.32
2022-11-24T05:53:38.281Z,8.77
2022-11-24T05:56:05.330Z,8.65
2022-11-24T05:58:32.183Z,9.30
2022-11-24T06:00:58.957Z,8.88
2022-11-24T06:03:25.654Z,9.68
2022-11-24T06:05:52.445Z,9.00
2022-11-24T06:08:19.263Z,10.07
2022-11-24T06:10:45.962Z,9.35
2022-11-24T06:13:12.674Z,8.80
2022-11-24T06:15:40.809Z,9.00
2022-11-24T06:18:07.656Z,9.40
2022-11-24T06:20:34.672Z,8.95
2022-11-24T06:23:01.590Z,9.27
2022-11-24T06:25:29.426Z,9.50
2022-11-24T06:27:56.229Z,9.32
2022-11-24T06:30:23.266Z,9.52
2022-11-24T06:32:54.815Z,8.43
2022-11-24T06:35:21.667Z,8.40
2022-11-24T06:37:48.401Z,8.27
2022-11-24T06:40:15.146Z,7.97
2022-11-24T06:42:41.923Z,7.82
2022-11-24T06:45:09.799Z,7.90
2022-11-24T06:47:37.048Z,8.40
2022-11-24T06:50:04.451Z,9.00
2022-11-24T06:52:31.227Z,8.13
2022-11-24T06:54:57.960Z,8.07
2022-11-24T06:57:24.789Z,8.38
2022-11-24T06:59:51.603Z,8.02
2022-11-24T07:02:18.312Z,8.73
2022-11-24T07:04:45.101Z,9.43
2022-11-24T07:07:12.749Z,8.85
2022-11-24T07:09:39.564Z,9.90
2022-11-24T07:12:06.714Z,9.32
2022-11-24T07:14:33.810Z,9.02
2022-11-24T07:17:02.514Z,10.45
2022-11-24T07:19:29.390Z,9.70
2022-11-24T07:21:56.569Z,9.98
2022-11-24T07:24:23.410Z,9.88
2022-11-24T07:26:50.215Z,10.77
2022-11-24T07:29:16.938Z,11.13
2022-11-24T07:31:43.996Z,10.48
2022-11-24T07:34:10.763Z,10.02
2022-11-24T07:36:37.481Z,9.52
2022-11-24T07:39:06.958Z,11.05
2022-11-24T07:41:33.745Z,9.18
2022-11-24T07:44:00.481Z,9.88
2022-11-24T07:46:27.320Z,10.30
2022-11-24T07:48:54.074Z,10.00
2022-11-24T07:51:20.826Z,9.82
2022-11-24T07:53:47.571Z,10.18
2022-11-24T07:56:14.401Z,9.52
2022-11-24T07:58:41.192Z,9.30
2022-11-24T08:01:16.342Z,8.75
2022-11-24T08:03:44.119Z,9.15
2022-11-24T08:06:30.534Z,8.00
2022-11-24T08:08:59.085Z,8.30
2022-11-24T08:11:26.261Z,8.68
2022-11-24T08:13:53.110Z,9.57
2022-11-24T08:16:20.491Z,8.65
2022-11-24T08:18:52.393Z,8.02
2022-11-24T08:21:19.860Z,8.15
2022-11-24T08:23:47.143Z,8.02
2022-11-24T08:26:18.891Z,7.35
2022-11-24T08:28:46.601Z,7.65
2022-11-24T08:31:16.662Z,7.07
2022-11-24T08:33:43.446Z,6.85
2022-11-24T08:36:15.390Z,12.43
2022-11-24T08:41:12.628Z,6.85
2022-11-24T08:43:40.167Z,6.78
2022-11-24T08:46:09.902Z,6.53
2022-11-24T08:48:37.280Z,6.97
2022-11-24T08:51:26.054Z,7.38
2022-11-24T08:53:58.347Z,7.47
2022-11-24T08:56:27.376Z,7.55
2022-11-24T08:58:55.389Z,7.28
2022-11-24T09:01:22.891Z,7.35
2022-11-24T09:03:51.515Z,7.82
2022-11-24T09:06:27.665Z,8.02
2022-11-24T09:08:55.632Z,7.18
2022-11-24T09:11:23.122Z,8.15
2022-11-24T09:13:50.472Z,7.80
2022-11-24T09:16:19.754Z,8.57
2022-11-24T09:18:48.314Z,8.25
2022-11-24T09:21:18.203Z,8.10
2022-11-24T09:23:48.435Z,7.97
2022-11-24T09:26:16.553Z,9.10
2022-11-24T09:28:43.880Z,8.70
2022-11-24T09:31:13.112Z,8.40
2022-11-24T09:33:41.022Z,8.55
2022-11-24T09:36:08.023Z,9.32
2022-11-24T09:38:34.828Z,8.35
2022-11-24T09:41:32.362Z,9.20
2022-11-24T09:44:23.511Z,8.55
2022-11-24T09:47:02.101Z,8.70
2022-11-24T09:49:58.973Z,8.90
2022-11-24T09:53:13.614Z,9.18
2022-11-24T09:56:21.987Z,9.40
2022-11-24T09:58:52.003Z,9.40
2022-11-24T10:01:20.646Z,8.98
2022-11-24T10:03:54.579Z,8.05
2022-11-24T10:06:31.123Z,9.02
2022-11-24T10:09:56.185Z,8.65
2022-11-24T10:12:31.870Z,8.10
2022-11-24T10:15:18.860Z,7.72
2022-11-24T10:17:52.220Z,8.13
2022-11-24T10:20:30.844Z,7.40
2022-11-24T10:23:39.727Z,8.48
2022-11-24T10:26:29.923Z,7.70
2022-11-24T10:28:57.912Z,7.90
2022-11-24T10:31:33.186Z,8.20
2022-11-24T10:34:14.955Z,9.35
2022-11-24T10:37:10.619Z,9.88
2022-11-24T10:39:41.454Z,9.30
2022-11-24T10:42:18.231Z,9.80
2022-11-24T10:44:45.109Z,9.73
2022-11-24T10:47:20.534Z,9.23
2022-11-24T10:49:58.202Z,8.93
2022-11-24T10:52:26.391Z,10.75
2022-11-24T10:54:59.232Z,11.00
2022-11-24T10:57:32.479Z,12.07
2022-11-24T11:00:00.129Z,11.48
2022-11-24T11:02:31.745Z,12.02
2022-11-24T11:04:58.962Z,11.98
2022-11-24T11:07:26.656Z,11.45
2022-11-24T11:10:20.604Z,13.15
2022-11-24T11:12:47.653Z,11.18
2022-11-24T11:15:26.864Z,10.90
2022-11-24T11:17:58.536Z,11.50
2022-11-24T11:20:35.196Z,10.43
2022-11-24T11:23:14.816Z,10.82
2022-11-24T11:25:43.616Z,10.55
2022-11-24T11:28:25.379Z,9.18
2022-11-24T11:31:21.318Z,9.40
2022-11-24T11:34:05.298Z,11.40
2022-11-24T11:36:34.480Z,10.93
2022-11-24T11:39:03.924Z,9.82
2022-11-24T11:41:36.025Z,10.32
2022-11-24T11:44:27.346Z,9.73
2022-11-24T11:46:58.707Z,9.48
2022-11-24T11:49:25.801Z,9.32
2022-11-24T11:52:30.672Z,9.90
2022-11-24T11:55:46.587Z,9.13
2022-11-24T11:58:48.548Z,9.23
2022-11-24T12:01:15.194Z,8.35
2022-11-24T12:04:04.593Z,8.70
2022-11-24T12:06:37.093Z,9.25
2022-11-24T12:09:24.556Z,8.65
2022-11-24T12:12:20.549Z,9.73
2022-11-24T12:15:10.589Z,9.57
2022-11-24T12:18:03.260Z,10.10
2022-11-24T12:23:02.705Z,9.27
2022-11-24T12:25:40.160Z,9.40
2022-11-24T12:28:37.940Z,10.13
2022-11-24T12:31:13.605Z,9.10
2022-11-24T12:34:36.440Z,9.55
2022-11-24T12:37:21.792Z,10.73
2022-11-24T12:40:04.095Z,10.98
2022-11-24T12:42:59.944Z,10.38
2022-11-24T12:45:45.300Z,10.85
2022-11-24T12:48:18.060Z,10.25
2022-11-24T12:50:46.254Z,10.73
2022-11-24T12:53:12.944Z,11.23
2022-11-24T12:55:40.983Z,11.10
2022-11-24T12:58:21.582Z,10.13
2022-11-24T13:01:04.851Z,9.98
2022-11-24T13:04:09.204Z,9.98
2022-11-24T13:06:47.480Z,10.73
2022-11-24T13:09:16.091Z,9.48
2022-11-24T13:11:45.793Z,9.93
2022-11-24T13:14:24.365Z,9.38
2022-11-24T13:19:44.327Z,10.50
2022-11-24T13:22:16.810Z,9.05
2022-11-24T13:24:45.185Z,9.70
2022-11-24T13:27:26.578Z,10.23
2022-11-24T13:29:54.060Z,10.23
2022-11-24T13:32:23.870Z,10.88
2022-11-24T13:34:54.860Z,10.85
2022-11-24T13:37:33.758Z,10.45
2022-11-24T13:40:22.690Z,9.75
2022-11-24T13:42:56.202Z,11.35
2022-11-24T13:45:41.807Z,9.68
2022-11-24T13:48:21.741Z,10.50
2022-11-24T13:50:53.170Z,11.40
2022-11-24T13:53:38.243Z,11.23
2022-11-24T13:56:13.860Z,10.20
2022-11-24T13:58:43.613Z,11.10
2022-11-24T14:01:21.794Z,12.55
2022-11-24T14:06:53.360Z,10.88
2022-11-24T14:09:36.455Z,11.85
2022-11-24T14:12:08.568Z,10.57
2022-11-24T14:14:35.577Z,10.68
2022-11-24T14:17:15.090Z,11.27
2022-11-24T14:19:43.785Z,10.77
2022-11-24T14:22:40.172Z,11.23
2022-11-24T14:25:20.220Z,10.23
2022-11-24T14:27:47.036Z,10.10
2022-11-24T14:30:13.736Z,10.57
2022-11-24T14:32:42.288Z,11.32
2022-11-24T14:35:32.069Z,10.48
2022-11-24T14:38:04.221Z,9.27
2022-11-24T14:40:40.299Z,8.85
2022-11-24T14:43:20.283Z,8.80
2022-11-24T14:46:12.292Z,9.43
2022-11-24T14:51:29.377Z,9.18
2022-11-24T14:54:02.193Z,9.10
2022-11-24T14:56:37.652Z,9.18
2022-11-24T14:59:20.569Z,8.75
2022-11-24T15:01:47.425Z,8.48
2022-11-24T15:05:01.744Z,9.13
2022-11-24T15:07:16.563Z,8.63
2022-11-24T15:10:35.008Z,9.10
2022-11-24T15:13:05.332Z,8.13
2022-11-24T15:15:38.844Z,8.32
2022-11-24T15:18:06.973Z,8.93
2022-11-24T15:20:35.681Z,8.15
2022-11-24T15:23:22.976Z,8.13
2022-11-24T15:25:54.400Z,7.68
2022-11-24T15:28:25.820Z,8.85
2022-11-24T15:31:00.023Z,7.20
2022-11-24T15:33:27.673Z,6.80
2022-11-24T15:35:54.682Z,7.70
2022-11-24T15:38:22.505Z,7.63
2022-11-24T15:40:52.424Z,6.97
2022-11-24T15:43:39.761Z,7.13
2022-11-24T15:46:07.799Z,6.40
2022-11-24T15:48:35.168Z,6.53
2022-11-24T15:51:05.810Z,7.35
2022-11-24T15:53:34.380Z,7.28
2022-11-24T15:56:03.373Z,7.85
2022-11-24T15:58:30.466Z,7.47
2022-11-24T16:00:57.469Z,7.93
2022-11-24T16:03:46.268Z,8.60
2022-11-24T16:06:22.188Z,7.82
2022-11-24T16:08:50.456Z,8.52
2022-11-24T16:11:17.223Z,8.73
2022-11-24T16:13:50.120Z,8.55
2022-11-24T16:16:19.787Z,9.35
2022-11-24T16:18:46.673Z,8.30
2022-11-24T16:21:13.442Z,9.45
2022-11-24T16:23:40.216Z,9.50
2022-11-24T16:26:07.363Z,10.02
2022-11-24T16:28:34.558Z,10.02
2022-11-24T16:31:01.642Z,9.60
2022-11-24T16:33:32.259Z,10.43
2022-11-24T16:35:59.119Z,10.48
2022-11-24T16:38:25.986Z,10.57
2022-11-24T16:40:54.598Z,9.98
2022-11-24T16:43:21.474Z,10.68
2022-11-24T16:46:16.362Z,11.02
2022-11-24T16:48:44.249Z,11.23
2022-11-24T16:51:11.840Z,10.25
2022-11-24T16:53:38.781Z,10.70
2022-11-24T16:56:06.327Z,9.88
2022-11-24T16:58:33.495Z,9.77
2022-11-24T17:01:08.531Z,10.85
2022-11-24T17:03:37.535Z,10.00
2022-11-24T17:06:09.688Z,10.63
2022-11-24T17:08:39.365Z,10.35
2022-11-24T17:11:10.864Z,11.88
2022-11-24T17:13:39.083Z,11.00
2022-11-24T17:16:07.567Z,10.07
2022-11-24T17:18:34.624Z,10.60
2022-11-24T17:21:07.680Z,10.60
2022-11-24T17:23:36.116Z,9.85
2022-11-24T17:26:05.143Z,9.82
2022-11-24T17:28:32.162Z,9.32
2022-11-24T17:30:59.114Z,8.95
2022-11-24T17:33:28.055Z,9.35
2022-11-24T17:35:54.892Z,9.75
2022-11-24T17:38:21.888Z,9.75
2022-11-24T17:40:48.666Z,9.65
2022-11-24T17:43:15.559Z,9.30
2022-11-24T17:45:42.472Z,9.60
2022-11-24T17:48:09.212Z,9.98
2022-11-24T17:50:36.059Z,9.77
2022-11-24T17:53:02.879Z,9.98
2022-11-24T17:55:29.675Z,8.55
2022-11-24T17:57:56.817Z,8.75
2022-11-24T18:00:24.111Z,9.05
2022-11-24T18:02:50.928Z,8.82
2022-11-24T18:05:17.825Z,8.27
2022-11-24T18:07:44.643Z,9.38
2022-11-24T18:10:11.663Z,9.23
2022-11-24T18:12:39.898Z,9.00
2022-11-24T18:15:07.203Z,7.35
2022-11-24T18:17:34.051Z,8.27
2022-11-24T18:20:00.878Z,7.85
2022-11-24T18:22:49.858Z,8.43
2022-11-24T18:25:14.688Z,7.90
2022-11-24T18:27:41.849Z,8.10
2022-11-24T18:30:09.221Z,8.45
2022-11-24T18:32:36.095Z,8.65
2022-11-24T18:35:02.940Z,9.27
2022-11-24T18:37:33.974Z,8.73
2022-11-24T18:40:00.966Z,8.60
2022-11-24T18:42:30.180Z,8.15
2022-11-24T18:44:57.477Z,7.38
2022-11-24T18:47:24.340Z,7.45
2022-11-24T18:50:08.780Z,8.60
2022-11-24T18:52:35.461Z,7.82
2022-11-24T18:55:04.046Z,7.43
2022-11-24T18:57:33.970Z,8.48
2022-11-24T19:00:00.881Z,8.27
2022-11-24T19:02:27.693Z,8.38
2022-11-24T19:04:54.619Z,7.95
2022-11-24T19:07:21.498Z,8.63
2022-11-24T19:09:48.469Z,8.13
2022-11-24T19:12:15.275Z,7.95
2022-11-24T19:14:42.071Z,7.40
2022-11-24T19:17:08.915Z,7.85
2022-11-24T19:19:36.015Z,7.95
2022-11-24T19:22:03.672Z,8.00
2022-11-24T19:24:30.404Z,7.82
2022-11-24T19:26:57.526Z,7.80
2022-11-24T19:29:24.318Z,7.25
2022-11-24T19:31:51.234Z,7.97
2022-11-24T19:34:18.288Z,7.72
2022-11-24T19:36:45.009Z,7.53
2022-11-24T19:39:15.393Z,7.60
2022-11-24T19:41:42.303Z,8.18
2022-11-24T19:44:12.914Z,7.28
2022-11-24T19:46:40.706Z,7.82
2022-11-24T19:49:10.487Z,8.45
2022-11-24T19:51:39.096Z,8.20
2022-11-24T19:54:08.156Z,6.90
2022-11-24T19:56:37.083Z,6.85
2022-11-24T19:59:06.212Z,6.63
2022-11-24T20:01:39.608Z,7.35
2022-11-24T20:04:18.511Z,6.80
2022-11-24T20:06:47.188Z,6.55
2022-11-24T20:09:16.734Z,6.60
2022-11-24T20:11:43.963Z,6.50
2022-11-24T20:14:15.362Z,6.50
2022-11-24T20:16:42.466Z,6.63
2022-11-24T20:19:14.560Z,6.10
2022-11-24T20:21:46.146Z,5.78
2022-11-24T20:24:15.993Z,6.30
2022-11-24T20:26:46.285Z,6.47
2022-11-24T20:29:14.750Z,5.57
2022-11-24T20:31:47.679Z,4.97
2022-11-24T20:34:14.786Z,5.80
2022-11-24T20:36:43.538Z,5.68
2022-11-24T20:39:15.376Z,6.45
2022-11-24T20:41:42.175Z,6.15
2022-11-24T20:44:13.694Z,6.68
2022-11-24T20:46:42.146Z,5.80
2022-11-24T20:49:13.091Z,6.05
2022-11-24T20:51:43.818Z,6.20
2022-11-24T20:54:13.123Z,6.40
2022-11-24T20:56:42.082Z,5.75
2022-11-24T20:59:12.312Z,6.38
2022-11-24T21:01:42.537Z,6.22
2022-11-24T21:04:12.454Z,6.88
2022-11-24T21:06:39.982Z,6.07
2022-11-24T21:09:08.525Z,6.15
2022-11-24T21:11:36.431Z,5.70
2022-11-24T21:14:03.612Z,6.20
2022-11-24T21:16:32.833Z,6.72
2022-11-24T21:19:11.462Z,6.13
2022-11-24T21:21:39.816Z,6.80
2022-11-24T21:24:11.575Z,6.05
2022-11-24T21:26:39.608Z,5.32
2022-11-24T21:29:06.865Z,5.80
2022-11-24T21:31:37.619Z,6.88
2022-11-24T21:34:05.933Z,6.45
2022-11-24T21:36:34.922Z,6.18
2022-11-24T21:39:03.390Z,5.80
2022-11-24T21:41:32.966Z,5.53
2022-11-24T21:44:00.276Z,4.95
2022-11-24T21:46:29.545Z,4.93
2022-11-24T21:48:56.269Z,5.65
2022-11-24T21:51:23.224Z,5.55
2022-11-24T21:53:50.070Z,5.18
2022-11-24T21:56:19.402Z,5.95
2022-11-24T21:58:47.743Z,5.82
2022-11-24T22:01:16.067Z,6.15
2022-11-24T22:03:43.111Z,4.97
2022-11-24T22:06:10.284Z,5.78
2022-11-24T22:08:37.571Z,5.30
2022-11-24T22:11:11.573Z,5.88
2022-11-24T22:13:38.881Z,4.82
2022-11-24T22:16:08.515Z,4.95
2022-11-24T22:18:40.321Z,5.30
2022-11-24T22:21:10.209Z,5.70
2022-11-24T22:23:37.064Z,5.93
2022-11-24T22:26:05.969Z,6.45
2022-11-24T22:28:34.192Z,6.03
2022-11-24T22:31:07.801Z,6.30
2022-11-24T22:33:34.805Z,6.18
2022-11-24T22:36:02.253Z,6.07
2022-11-24T22:38:30.190Z,6.13
2022-11-24T22:41:05.149Z,5.78
2022-11-24T22:43:33.548Z,5.45
2022-11-24T22:46:08.749Z,6.25
2022-11-24T22:48:35.615Z,6.43
2022-11-24T22:51:19.275Z,5.97
2022-11-24T22:53:51.078Z,5.47
2022-11-24T22:58:44.558Z,5.30
2022-11-24T23:01:13.684Z,5.70
2022-11-24T23:03:41.431Z,6.70
2022-11-24T23:06:20.316Z,5.90
2022-11-24T23:08:47.627Z,6.05
2022-11-24T23:11:18.011Z,5.78
2022-11-24T23:13:45.079Z,6.07
2022-11-24T23:16:14.518Z,6.10
2022-11-24T23:18:41.906Z,5.97
2022-11-24T23:21:12.039Z,6.40
2022-11-24T23:23:40.143Z,6.57
2022-11-24T23:26:11.923Z,6.30
2022-11-24T23:28:39.816Z,7.40
2022-11-24T23:31:16.522Z,6.75
2022-11-24T23:33:43.615Z,5.78
2022-11-24T23:36:16.286Z,6.13
2022-11-24T23:38:44.382Z,6.35
2022-11-24T23:41:13.693Z,6.00
2022-11-24T23:43:41.816Z,6.10
2022-11-24T23:46:12.913Z,5.70
2022-11-24T23:48:40.307Z,6.78
2022-11-24T23:51:13.350Z,5.55
2022-11-24T23:53:40.568Z,6.10
2022-11-24T23:56:08.578Z,5.50
2022-11-24T23:58:35.412Z,5.72
